Time;durP1;ratioP1;P1;durP2;ratioP2;P2;SDS_P1;SDS_P2;PMS_P1;PMS_P2;Temp;Humidity;BMP_temperature;BMP_pressure;BME280_temperature;BME280_humidity;BME280_pressure;Samples;Min_cycle;Max_cycle;Signal;HPM_P1;HPM_P2
2024/04/04 00:02:30;;;;;;;2.83;2.17;;;;;;;;;;10126111;28;20524;-68
2024/04/04 00:07:23;;;;;;;7.85;2.47;;;;;;;;;;10121325;28;20131;-66
2024/04/04 00:12:19;;;;;;;6.53;2.53;;;;;;;;;;10121496;28;20040;-66
2024/04/04 00:17:11;;;;;;;6.35;2.17;;;;;;;;;;10107340;28;20051;-67
2024/04/04 00:22:07;;;;;;;4.72;3.08;;;;;;;;;;10125882;28;20523;-66
2024/04/04 00:27:00;;;;;;;4.07;2.03;;;;;;;;;;10122565;28;20052;-66
2024/04/04 00:31:52;;;;;;;4.00;2.25;;;;;;;;;;10120845;28;20048;-67
2024/04/04 00:36:46;;;;;;;4.55;2.00;;;;;;;;;;10125169;28;20574;-67
2024/04/04 00:41:39;;;;;;;4.22;3.20;;;;;;;;;;10118490;28;20053;-66
2024/04/04 00:46:31;;;;;;;5.35;2.42;;;;;;;;;;10127047;28;20066;-66
2024/04/04 00:51:24;;;;;;;5.80;2.20;;;;;;;;;;10119932;28;20075;-66
2024/04/04 00:56:16;;;;;;;6.80;3.03;;;;;;;;;;10126749;28;20056;-67
2024/04/04 01:01:09;;;;;;;5.75;2.65;;;;;;;;;;10123417;28;20082;-67
2024/04/04 01:06:02;;;;;;;4.65;2.08;;;;;;;;;;10126813;28;20051;-66
2024/04/04 01:10:55;;;;;;;2.38;1.40;;;;;;;;;;10114043;28;20063;-67
2024/04/04 01:15:48;;;;;;;5.43;2.08;;;;;;;;;;10117057;28;20060;-66
2024/04/04 01:20:42;;;;;;;6.03;1.80;;;;;;;;;;10111090;28;20106;-67
2024/04/04 01:25:35;;;;;;;3.22;1.58;;;;;;;;;;10106141;28;20131;-66
2024/04/04 01:30:27;;;;;;;5.63;1.58;;;;;;;;;;10099151;28;20075;-67
2024/04/04 01:35:20;;;;;;;4.30;1.45;;;;;;;;;;10122018;28;20048;-67
2024/04/04 01:40:13;;;;;;;3.17;1.73;;;;;;;;;;10111187;28;20085;-67
2024/04/04 01:45:07;;;;;;;3.17;1.67;;;;;;;;;;10111541;28;20053;-68
2024/04/04 01:49:59;;;;;;;1.40;1.30;;;;;;;;;;10115925;28;20139;-68
2024/04/04 01:54:51;;;;;;;4.55;3.10;;;;;;;;;;10122333;28;20041;-67
2024/04/04 01:59:44;;;;;;;4.07;1.50;;;;;;;;;;10113032;28;20063;-67
2024/04/04 02:04:37;;;;;;;2.95;1.70;;;;;;;;;;10113520;28;20055;-67
2024/04/04 02:09:29;;;;;;;6.43;1.85;;;;;;;;;;10119719;28;20076;-69
2024/04/04 02:14:22;;;;;;;2.30;1.60;;;;;;;;;;10118951;28;20060;-68
2024/04/04 02:19:14;;;;;;;2.55;1.80;;;;;;;;;;10112461;28;20412;-67
2024/04/04 02:24:05;;;;;;;7.80;2.30;;;;;;;;;;10110688;28;20040;-67
2024/04/04 02:28:59;;;;;;;2.53;1.95;;;;;;;;;;10117612;28;20040;-66
2024/04/04 02:33:52;;;;;;;6.57;2.15;;;;;;;;;;10107413;28;20053;-68
2024/04/04 02:38:44;;;;;;;2.63;2.13;;;;;;;;;;10109667;28;20044;-67
2024/04/04 02:43:36;;;;;;;7.25;2.45;;;;;;;;;;10108179;28;20059;-67
2024/04/04 02:48:29;;;;;;;5.22;2.28;;;;;;;;;;10097981;28;20105;-68
2024/04/04 02:53:21;;;;;;;3.92;1.98;;;;;;;;;;10109001;28;20058;-67
2024/04/04 02:58:14;;;;;;;3.47;2.35;;;;;;;;;;10118081;28;20052;-67
2024/04/04 03:03:07;;;;;;;3.97;2.65;;;;;;;;;;10103110;28;20045;-67
2024/04/04 03:07:59;;;;;;;5.00;2.50;;;;;;;;;;10105988;28;20121;-67
2024/04/04 03:12:52;;;;;;;3.95;2.42;;;;;;;;;;10104001;28;20036;-67
2024/04/04 03:17:44;;;;;;;4.47;2.10;;;;;;;;;;10108575;28;20488;-69
2024/04/04 03:22:36;;;;;;;3.67;2.47;;;;;;;;;;10100614;28;20117;-68
2024/04/04 03:27:28;;;;;;;6.30;2.55;;;;;;;;;;10110913;28;20049;-67
2024/04/04 03:32:21;;;;;;;2.90;1.90;;;;;;;;;;10111365;28;20135;-69
2024/04/04 03:37:13;;;;;;;4.20;2.20;;;;;;;;;;10109835;28;20511;-69
2024/04/04 03:42:06;;;;;;;4.55;2.53;;;;;;;;;;10104864;28;20049;-67
2024/04/04 03:46:58;;;;;;;5.75;1.90;;;;;;;;;;10112453;28;20052;-66
2024/04/04 03:51:52;;;;;;;7.00;2.08;;;;;;;;;;10096503;28;20182;-67
2024/04/04 03:56:45;;;;;;;3.20;1.67;;;;;;;;;;10100932;28;20520;-68
2024/04/04 04:01:37;;;;;;;7.07;2.13;;;;;;;;;;10104344;28;20052;-67
2024/04/04 04:06:34;;;;;;;6.57;2.40;;;;;;;;;;10101211;28;20128;-66
2024/04/04 04:11:26;;;;;;;3.25;1.85;;;;;;;;;;10104917;28;20049;-67
2024/04/04 04:16:19;;;;;;;5.10;1.88;;;;;;;;;;10107236;28;20411;-66
2024/04/04 04:21:19;;;;;;;3.30;2.03;;;;;;;;;;10112572;28;20056;-66
2024/04/04 04:26:12;;;;;;;7.40;1.63;;;;;;;;;;10109112;28;20480;-67
2024/04/04 04:31:07;;;;;;;7.28;2.72;;;;;;;;;;10109861;28;20140;-67
2024/04/04 04:36:05;;;;;;;7.45;3.15;;;;;;;;;;10097110;28;20049;-67
2024/04/04 04:41:04;;;;;;;2.40;1.63;;;;;;;;;;10096753;28;20144;-67
2024/04/04 04:45:56;;;;;;;;;;;;;;;;;;10101960;28;20530;-67
2024/04/04 04:50:49;;;;;;;8.27;2.53;;;;;;;;;;10112181;28;19981;-67
2024/04/04 04:55:42;;;;;;;4.20;1.77;;;;;;;;;;10105434;28;20088;-67
2024/04/04 05:00:35;;;;;;;7.85;3.40;;;;;;;;;;10096005;28;20060;-69
2024/04/04 05:05:27;;;;;;;4.53;2.75;;;;;;;;;;10104309;28;20139;-68
2024/04/04 05:10:19;;;;;;;6.90;3.10;;;;;;;;;;10114174;28;20135;-68
2024/04/04 05:15:12;;;;;;;4.75;2.53;;;;;;;;;;10112779;28;20045;-65
2024/04/04 05:20:07;;;;;;;6.40;3.50;;;;;;;;;;10104762;28;20398;-68
2024/04/04 05:25:00;;;;;;;6.70;2.00;;;;;;;;;;10119483;28;20094;-67
2024/04/04 05:29:53;;;;;;;3.13;1.65;;;;;;;;;;10110430;28;20045;-67
2024/04/04 05:34:48;;;;;;;6.40;1.95;;;;;;;;;;10136683;28;20128;-68
2024/04/04 05:39:41;;;;;;;6.28;2.90;;;;;;;;;;10142253;28;20037;-68
2024/04/04 05:44:34;;;;;;;8.95;2.72;;;;;;;;;;10142241;28;20100;-69
2024/04/04 05:49:27;;;;;;;3.42;1.90;;;;;;;;;;10142555;28;20053;-67
2024/04/04 05:54:19;;;;;;;3.72;2.38;;;;;;;;;;10142792;28;20048;-67
2024/04/04 05:59:12;;;;;;;4.60;1.85;;;;;;;;;;10140016;28;20444;-68
2024/04/04 06:04:05;;;;;;;3.63;1.85;;;;;;;;;;10134968;28;20076;-67
2024/04/04 06:08:57;;;;;;;4.18;1.85;;;;;;;;;;10135618;28;20044;-68
2024/04/04 06:13:51;;;;;;;10.45;2.60;;;;;;;;;;10126802;28;20128;-67
2024/04/04 06:18:44;;;;;;;10.90;3.33;;;;;;;;;;10125156;28;20107;-68
2024/04/04 06:23:37;;;;;;;10.23;5.05;;;;;;;;;;10133004;28;20128;-68
2024/04/04 06:28:30;;;;;;;9.68;4.28;;;;;;;;;;10133244;28;20397;-68
2024/04/04 06:33:22;;;;;;;8.00;2.72;;;;;;;;;;10132970;28;20075;-69
2024/04/04 06:38:15;;;;;;;4.93;3.05;;;;;;;;;;10132612;28;20087;-68
2024/04/04 06:43:07;;;;;;;5.57;2.70;;;;;;;;;;10130782;28;20083;-66
2024/04/04 06:48:00;;;;;;;10.40;2.63;;;;;;;;;;10129024;28;20052;-67
2024/04/04 06:52:55;;;;;;;6.60;2.25;;;;;;;;;;10085461;28;20582;-68
2024/04/04 06:57:48;;;;;;;7.15;2.20;;;;;;;;;;10090585;28;20058;-68
2024/04/04 07:02:40;;;;;;;8.13;2.53;;;;;;;;;;10073158;28;20037;-67
2024/04/04 07:07:32;;;;;;;6.25;2.30;;;;;;;;;;10088113;28;20045;-66
2024/04/04 07:12:24;;;;;;;7.57;2.83;;;;;;;;;;10086728;28;20623;-67
2024/04/04 07:17:17;;;;;;;8.10;3.00;;;;;;;;;;10085262;28;20128;-67
2024/04/04 07:22:09;;;;;;;8.10;2.78;;;;;;;;;;10073375;28;20510;-67
2024/04/04 07:27:02;;;;;;;8.30;3.15;;;;;;;;;;10064578;28;20132;-67
2024/04/04 07:31:55;;;;;;;9.18;2.80;;;;;;;;;;10065617;28;20076;-66
2024/04/04 07:36:47;;;;;;;5.90;3.15;;;;;;;;;;10071109;28;20104;-67
2024/04/04 07:41:41;;;;;;;8.23;3.55;;;;;;;;;;10074315;28;20148;-67
2024/04/04 07:46:33;;;;;;;5.28;2.08;;;;;;;;;;10068399;28;20053;-67
2024/04/04 07:51:26;;;;;;;4.57;2.60;;;;;;;;;;10082415;28;20099;-67
2024/04/04 07:56:19;;;;;;;9.57;3.47;;;;;;;;;;10091920;28;20179;-67
2024/04/04 08:01:12;;;;;;;6.80;3.65;;;;;;;;;;10092701;28;20052;-68
2024/04/04 08:06:05;;;;;;;8.57;3.53;;;;;;;;;;10091231;28;20047;-67
2024/04/04 08:10:58;;;;;;;8.07;5.15;;;;;;;;;;10082261;28;20041;-69
2024/04/04 08:15:51;;;;;;;7.65;5.18;;;;;;;;;;10080562;28;20049;-70
2024/04/04 08:20:47;;;;;;;7.78;4.30;;;;;;;;;;10088950;28;20053;-69
2024/04/04 08:25:41;;;;;;;10.70;3.92;;;;;;;;;;10091754;28;20118;-69
2024/04/04 08:30:33;;;;;;;12.07;4.30;;;;;;;;;;10075556;28;20281;-71
2024/04/04 08:35:27;;;;;;;7.05;4.25;;;;;;;;;;10090890;28;20053;-71
2024/04/04 08:40:20;;;;;;;11.20;3.78;;;;;;;;;;10076030;28;20046;-70
2024/04/04 08:45:15;;;;;;;5.60;2.55;;;;;;;;;;10083907;28;20108;-72
2024/04/04 08:50:12;;;;;;;5.25;3.33;;;;;;;;;;10077605;28;20708;-71
2024/04/04 08:55:05;;;;;;;9.02;3.05;;;;;;;;;;10087581;28;20136;-71
2024/04/04 08:59:59;;;;;;;7.53;3.47;;;;;;;;;;10084092;28;20414;-71
2024/04/04 09:04:52;;;;;;;7.35;4.07;;;;;;;;;;10081050;28;20052;-72
2024/04/04 09:09:46;;;;;;;8.02;2.90;;;;;;;;;;10082956;28;20045;-72
2024/04/04 09:14:39;;;;;;;10.95;4.50;;;;;;;;;;10081667;28;20502;-70
2024/04/04 09:19:31;;;;;;;8.13;2.42;;;;;;;;;;10076646;28;20137;-72
2024/04/04 09:24:24;;;;;;;4.28;2.83;;;;;;;;;;10090820;28;20118;-70
2024/04/04 09:29:17;;;;;;;9.27;3.17;;;;;;;;;;10090931;28;20518;-72
2024/04/04 09:34:13;;;;;;;5.82;2.97;;;;;;;;;;10079070;28;20091;-72
2024/04/04 09:39:10;;;;;;;6.25;2.70;;;;;;;;;;10082175;28;20045;-73
2024/04/04 09:44:02;;;;;;;6.43;3.42;;;;;;;;;;10082379;28;20045;-73
2024/04/04 09:48:55;;;;;;;9.18;4.45;;;;;;;;;;10082425;28;20046;-72
2024/04/04 09:53:48;;;;;;;6.47;2.47;;;;;;;;;;10037313;28;20493;-72
2024/04/04 09:58:43;;;;;;;5.88;2.78;;;;;;;;;;10061593;28;20085;-71
2024/04/04 10:03:37;;;;;;;6.28;3.03;;;;;;;;;;10079665;28;20071;-71
2024/04/04 10:08:30;;;;;;;6.07;1.98;;;;;;;;;;10082252;28;20038;-71
2024/04/04 10:13:23;;;;;;;4.70;2.10;;;;;;;;;;10082410;28;20493;-72
2024/04/04 10:18:19;;;;;;;7.93;2.20;;;;;;;;;;10068993;28;20154;-73
2024/04/04 10:23:31;;;;;;;3.45;1.85;;;;;;;;;;10073281;28;20057;-73
2024/04/04 10:28:24;;;;;;;5.85;1.85;;;;;;;;;;10066837;28;20053;-71
2024/04/04 10:33:17;;;;;;;7.05;2.83;;;;;;;;;;10060497;28;20051;-71
2024/04/04 10:38:14;;;;;;;8.25;2.45;;;;;;;;;;10072213;28;20068;-72
2024/04/04 10:43:08;;;;;;;4.75;2.28;;;;;;;;;;10071287;28;20037;-70
2024/04/04 10:48:01;;;;;;;6.63;2.33;;;;;;;;;;10078241;28;20049;-73
2024/04/04 10:52:54;;;;;;;7.15;2.80;;;;;;;;;;10112897;28;20084;-72
2024/04/04 10:57:53;;;;;;;4.90;1.88;;;;;;;;;;10103680;28;20493;-72
2024/04/04 11:02:49;;;;;;;7.35;3.00;;;;;;;;;;10100431;28;20412;-71
2024/04/04 11:07:45;;;;;;;9.63;2.50;;;;;;;;;;10103363;28;20496;-74
2024/04/04 11:12:40;;;;;;;4.38;2.95;;;;;;;;;;10086817;28;20045;-72
2024/04/04 11:17:36;;;;;;;6.88;2.97;;;;;;;;;;10113511;28;20479;-72
2024/04/04 11:22:29;;;;;;;13.13;3.63;;;;;;;;;;10100725;28;20044;-71
2024/04/04 11:27:22;;;;;;;6.03;2.60;;;;;;;;;;10106814;28;20042;-72
2024/04/04 11:32:15;;;;;;;8.65;3.20;;;;;;;;;;10097500;28;20540;-71
2024/04/04 11:37:07;;;;;;;6.75;2.67;;;;;;;;;;10091147;28;20136;-72
2024/04/04 11:42:00;;;;;;;5.63;2.28;;;;;;;;;;10088480;28;20691;-72
2024/04/04 11:46:53;;;;;;;13.45;3.45;;;;;;;;;;10088284;28;20040;-74
2024/04/04 11:51:47;;;;;;;5.18;2.30;;;;;;;;;;10116279;28;20056;-72
2024/04/04 11:56:41;;;;;;;12.00;3.80;;;;;;;;;;10115796;28;20117;-72
2024/04/04 12:01:34;;;;;;;6.00;3.20;;;;;;;;;;10101084;28;20129;-71
2024/04/04 12:06:27;;;;;;;10.60;4.10;;;;;;;;;;10108247;28;20049;-68
2024/04/04 12:11:20;;;;;;;10.05;3.72;;;;;;;;;;10112804;28;20051;-68
2024/04/04 12:16:12;;;;;;;9.60;3.42;;;;;;;;;;10105892;28;20056;-68
2024/04/04 12:21:06;;;;;;;8.00;3.25;;;;;;;;;;10113235;28;20586;-67
2024/04/04 12:25:58;;;;;;;9.73;4.63;;;;;;;;;;10110846;28;20413;-66
2024/04/04 12:30:51;;;;;;;8.07;3.88;;;;;;;;;;10096992;28;20080;-68
2024/04/04 12:35:44;;;;;;;10.38;4.25;;;;;;;;;;10108338;28;20432;-67
2024/04/04 12:40:38;;;;;;;9.65;4.10;;;;;;;;;;10123568;28;20348;-67
2024/04/04 12:45:30;;;;;;;7.72;4.65;;;;;;;;;;10115495;28;20420;-67
2024/04/04 12:50:23;;;;;;;8.10;4.88;;;;;;;;;;10115132;28;20179;-67
2024/04/04 12:55:17;;;;;;;9.80;5.38;;;;;;;;;;10122470;28;20159;-68
2024/04/04 13:00:11;;;;;;;16.35;6.78;;;;;;;;;;10127420;28;20128;-68
2024/04/04 13:05:05;;;;;;;6.70;4.75;;;;;;;;;;10127216;28;20052;-68
2024/04/04 13:09:57;;;;;;;8.02;4.03;;;;;;;;;;10126560;28;20044;-67
2024/04/04 13:14:50;;;;;;;6.28;5.07;;;;;;;;;;10120101;28;20111;-67
2024/04/04 13:19:45;;;;;;;11.45;5.38;;;;;;;;;;10120987;28;20135;-67
2024/04/04 13:24:38;;;;;;;10.30;5.00;;;;;;;;;;10107812;28;20037;-68
2024/04/04 13:29:31;;;;;;;8.70;4.45;;;;;;;;;;10122787;28;20123;-67
2024/04/04 13:34:25;;;;;;;14.48;4.72;;;;;;;;;;10126664;28;20052;-68
2024/04/04 13:39:18;;;;;;;7.68;4.10;;;;;;;;;;10128843;28;20110;-67
2024/04/04 13:44:18;;;;;;;8.88;5.28;;;;;;;;;;10106836;28;20128;-68
2024/04/04 13:49:24;;;;;;;10.07;4.50;;;;;;;;;;10121231;28;20060;-68
2024/04/04 13:54:16;;;;;;;13.52;6.05;;;;;;;;;;10133793;28;20083;-68
2024/04/04 13:59:08;;;;;;;9.00;4.10;;;;;;;;;;10124958;28;20041;-68
2024/04/04 14:04:01;;;;;;;10.27;4.30;;;;;;;;;;10126458;28;20052;-67
2024/04/04 14:08:54;;;;;;;11.55;4.20;;;;;;;;;;10131807;28;20072;-67
2024/04/04 14:13:48;;;;;;;12.05;4.95;;;;;;;;;;10148287;28;20442;-69
2024/04/04 14:18:40;;;;;;;8.43;3.75;;;;;;;;;;10132603;28;20488;-67
2024/04/04 14:23:33;;;;;;;11.57;5.20;;;;;;;;;;10133136;28;20044;-68
2024/04/04 14:28:26;;;;;;;6.50;4.15;;;;;;;;;;10126569;28;20052;-66
2024/04/04 14:33:19;;;;;;;8.35;3.75;;;;;;;;;;10117688;28;20052;-66
2024/04/04 14:38:11;;;;;;;16.33;4.28;;;;;;;;;;10120359;28;20045;-67
2024/04/04 14:43:07;;;;;;;8.02;4.28;;;;;;;;;;10130166;28;20060;-67
2024/04/04 14:48:00;;;;;;;12.13;4.22;;;;;;;;;;10118178;28;20401;-66
2024/04/04 14:52:52;;;;;;;8.82;4.53;;;;;;;;;;10117802;28;20162;-66
2024/04/04 14:57:45;;;;;;;9.07;4.10;;;;;;;;;;10111910;28;20059;-68
2024/04/04 15:02:37;;;;;;;11.80;3.75;;;;;;;;;;10114073;28;20550;-67
2024/04/04 15:07:30;;;;;;;10.73;4.10;;;;;;;;;;10112250;28;20041;-66
2024/04/04 15:12:21;;;;;;;8.50;3.50;;;;;;;;;;10106742;28;20053;-67
2024/04/04 15:17:13;;;;;;;7.75;3.17;;;;;;;;;;10107190;28;20550;-67
2024/04/04 15:22:07;;;;;;;14.90;3.47;;;;;;;;;;10115531;28;20097;-68
2024/04/04 15:27:00;;;;;;;10.90;3.65;;;;;;;;;;10110082;28;20477;-67
2024/04/04 15:31:54;;;;;;;8.15;3.78;;;;;;;;;;10117215;28;20076;-67
2024/04/04 15:36:46;;;;;;;11.30;3.70;;;;;;;;;;10108545;28;20083;-67
2024/04/04 15:41:39;;;;;;;6.72;3.05;;;;;;;;;;10113091;28;20049;-66
2024/04/04 15:46:31;;;;;;;11.65;3.67;;;;;;;;;;10104956;28;20048;-67
2024/04/04 15:51:24;;;;;;;8.20;3.33;;;;;;;;;;10116874;28;20060;-66
2024/04/04 15:56:17;;;;;;;6.78;3.58;;;;;;;;;;10121018;28;20388;-67
2024/04/04 16:01:10;;;;;;;9.10;3.15;;;;;;;;;;10113018;28;20049;-66
2024/04/04 16:06:02;;;;;;;5.63;2.92;;;;;;;;;;10098745;28;20045;-67
2024/04/04 16:10:54;;;;;;;12.15;4.45;;;;;;;;;;10097517;28;20063;-66
2024/04/04 16:15:51;;;;;;;10.15;3.92;;;;;;;;;;10095886;28;20147;-67
2024/04/04 16:20:43;;;;;;;9.95;4.47;;;;;;;;;;10088335;28;20463;-68
2024/04/04 16:25:36;;;;;;;7.97;3.83;;;;;;;;;;10105961;28;20123;-67
2024/04/04 16:30:29;;;;;;;6.60;3.85;;;;;;;;;;10108487;28;20555;-67
2024/04/04 16:35:21;;;;;;;10.88;3.60;;;;;;;;;;10108627;28;20075;-68
2024/04/04 16:40:14;;;;;;;7.97;3.72;;;;;;;;;;10095995;28;20464;-67
2024/04/04 16:45:07;;;;;;;10.25;3.92;;;;;;;;;;10103568;28;20068;-68
2024/04/04 16:50:00;;;;;;;5.45;3.75;;;;;;;;;;10107585;28;20044;-67
2024/04/04 16:54:53;;;;;;;10.18;4.40;;;;;;;;;;10121694;28;20041;-67
2024/04/04 16:59:45;;;;;;;11.07;3.95;;;;;;;;;;10106709;28;20044;-67
2024/04/04 17:04:38;;;;;;;12.95;3.17;;;;;;;;;;10115720;28;20049;-66
2024/04/04 17:09:32;;;;;;;6.30;3.15;;;;;;;;;;10105029;28;20048;-67
2024/04/04 17:14:26;;;;;;;9.60;3.40;;;;;;;;;;10109368;28;20048;-67
2024/04/04 17:19:18;;;;;;;12.25;3.88;;;;;;;;;;10114450;28;20393;-67
2024/04/04 17:24:11;;;;;;;10.20;4.53;;;;;;;;;;10099258;28;20548;-67
2024/04/04 17:29:06;;;;;;;11.13;5.28;;;;;;;;;;10102305;28;20048;-67
2024/04/04 17:33:59;;;;;;;12.70;7.60;;;;;;;;;;10101044;28;20473;-68
2024/04/04 17:38:52;;;;;;;14.32;5.60;;;;;;;;;;10096640;28;20053;-68
2024/04/04 17:43:44;;;;;;;26.23;23.63;;;;;;;;;;10097007;28;20463;-67
2024/04/04 17:48:36;;;;;;;11.55;5.28;;;;;;;;;;10115161;28;20210;-67
2024/04/04 17:53:29;;;;;;;6.60;4.03;;;;;;;;;;10110494;28;20110;-67
2024/04/04 17:58:22;;;;;;;11.45;6.70;;;;;;;;;;10101835;28;20087;-68
2024/04/04 18:03:15;;;;;;;7.55;5.05;;;;;;;;;;10102843;28;20552;-67
2024/04/04 18:08:09;;;;;;;9.27;3.65;;;;;;;;;;10108359;28;20057;-67
2024/04/04 18:13:03;;;;;;;27.95;17.73;;;;;;;;;;10105535;28;20390;-66
2024/04/04 18:17:56;;;;;;;11.77;9.85;;;;;;;;;;10114966;28;20037;-67
2024/04/04 18:22:51;;;;;;;7.63;3.97;;;;;;;;;;10111395;28;20077;-67
2024/04/04 18:27:42;;;;;;;7.28;3.58;;;;;;;;;;10115365;28;20448;-69
2024/04/04 18:32:35;;;;;;;11.68;3.78;;;;;;;;;;10112226;28;20090;-66
2024/04/04 18:37:29;;;;;;;80.20;71.30;;;;;;;;;;10111191;28;20037;-67
2024/04/04 18:42:22;;;;;;;16.10;12.05;;;;;;;;;;10117058;28;20048;-67
2024/04/04 18:47:14;;;;;;;3.45;2.97;;;;;;;;;;10115963;28;20056;-66
2024/04/04 18:52:10;;;;;;;17.52;5.93;;;;;;;;;;10112048;28;20048;-67
2024/04/04 18:57:03;;;;;;;6.03;2.67;;;;;;;;;;10111450;28;20037;-66
2024/04/04 19:01:59;;;;;;;4.07;1.98;;;;;;;;;;10112849;28;20129;-68
2024/04/04 19:06:51;;;;;;;5.55;2.60;;;;;;;;;;10110768;28;20428;-68
2024/04/04 19:11:43;;;;;;;12.07;5.30;;;;;;;;;;10114862;28;20052;-65
2024/04/04 19:16:36;;;;;;;3.70;2.40;;;;;;;;;;10111748;28;20136;-67
2024/04/04 19:21:29;;;;;;;3.60;1.60;;;;;;;;;;10114967;28;20144;-67
2024/04/04 19:26:21;;;;;;;10.75;2.50;;;;;;;;;;10116010;28;20143;-67
2024/04/04 19:31:14;;;;;;;4.03;1.13;;;;;;;;;;10111513;28;20423;-67
2024/04/04 19:36:08;;;;;;;4.00;1.40;;;;;;;;;;10115800;28;20041;-67
2024/04/04 19:41:02;;;;;;;5.88;1.95;;;;;;;;;;10109874;28;20052;-67
2024/04/04 19:45:57;;;;;;;6.25;2.00;;;;;;;;;;10111514;28;20099;-67
2024/04/04 19:50:50;;;;;;;4.95;2.05;;;;;;;;;;10106680;28;20060;-67
2024/04/04 19:55:43;;;;;;;6.35;2.42;;;;;;;;;;10110634;28;20036;-67
2024/04/04 20:00:37;;;;;;;4.50;1.85;;;;;;;;;;10119278;28;20037;-67
2024/04/04 20:05:30;;;;;;;3.17;1.60;;;;;;;;;;10128417;28;20159;-67
2024/04/04 20:10:22;;;;;;;8.57;2.63;;;;;;;;;;10128386;28;20146;-67
2024/04/04 20:15:15;;;;;;;5.55;2.17;;;;;;;;;;10127515;28;20446;-67
2024/04/04 20:20:09;;;;;;;3.70;1.70;;;;;;;;;;10128398;28;20047;-66
2024/04/04 20:25:02;;;;;;;3.97;1.45;;;;;;;;;;10125008;28;20136;-66
2024/04/04 20:29:54;;;;;;;4.93;1.80;;;;;;;;;;10128059;28;20055;-66
2024/04/04 20:34:47;;;;;;;4.97;1.67;;;;;;;;;;10127860;28;20044;-67
2024/04/04 20:39:40;;;;;;;7.85;2.45;;;;;;;;;;10127063;28;20416;-67
2024/04/04 20:44:36;;;;;;;6.45;2.78;;;;;;;;;;10127781;28;20128;-68
2024/04/04 20:49:30;;;;;;;6.25;1.92;;;;;;;;;;10127437;28;20079;-68
2024/04/04 20:54:23;;;;;;;4.20;1.70;;;;;;;;;;10127115;28;20037;-68
2024/04/04 20:59:16;;;;;;;3.78;1.70;;;;;;;;;;10125588;28;20051;-67
2024/04/04 21:04:09;;;;;;;4.78;1.52;;;;;;;;;;10111694;28;20040;-67
2024/04/04 21:09:03;;;;;;;3.58;1.45;;;;;;;;;;10122896;28;20048;-66
2024/04/04 21:13:58;;;;;;;4.15;1.55;;;;;;;;;;10119763;28;20048;-67
2024/04/04 21:18:51;;;;;;;3.17;1.20;;;;;;;;;;10121352;28;20539;-67
2024/04/04 21:23:43;;;;;;;9.23;1.42;;;;;;;;;;10126980;28;20048;-67
2024/04/04 21:28:36;;;;;;;2.55;1.27;;;;;;;;;;10123267;28;20535;-68
2024/04/04 21:33:30;;;;;;;3.45;1.20;;;;;;;;;;10126935;28;20661;-67
2024/04/04 21:38:24;;;;;;;2.35;1.33;;;;;;;;;;10126677;28;20060;-67
2024/04/04 21:43:17;;;;;;;6.47;1.40;;;;;;;;;;10126317;28;20061;-67
2024/04/04 21:48:13;;;;;;;1.73;0.98;;;;;;;;;;10126311;28;20064;-67
2024/04/04 21:53:06;;;;;;;2.80;1.33;;;;;;;;;;10133458;28;20075;-67
2024/04/04 21:57:59;;;;;;;4.60;1.60;;;;;;;;;;10133960;28;20412;-66
2024/04/04 22:02:52;;;;;;;3.55;1.55;;;;;;;;;;10129502;28;20131;-66
2024/04/04 22:07:44;;;;;;;3.47;1.42;;;;;;;;;;10134155;28;20094;-68
2024/04/04 22:12:37;;;;;;;3.80;1.25;;;;;;;;;;10133491;28;20045;-67
2024/04/04 22:17:29;;;;;;;2.50;1.30;;;;;;;;;;10133286;28;20410;-67
2024/04/04 22:22:21;;;;;;;5.43;1.67;;;;;;;;;;10133709;28;20082;-66
2024/04/04 22:27:14;;;;;;;6.78;1.95;;;;;;;;;;10141442;28;20048;-67
2024/04/04 22:32:07;;;;;;;4.70;1.65;;;;;;;;;;10133244;28;20607;-67
2024/04/04 22:37:00;;;;;;;4.50;1.63;;;;;;;;;;10124832;28;20076;-66
2024/04/04 22:41:52;;;;;;;3.88;1.23;;;;;;;;;;10124698;28;20127;-67
2024/04/04 22:46:47;;;;;;;3.35;1.77;;;;;;;;;;10132892;28;20048;-67
2024/04/04 22:51:40;;;;;;;1.88;1.55;;;;;;;;;;10132025;28;20048;-67
2024/04/04 22:56:33;;;;;;;3.72;1.77;;;;;;;;;;10132034;28;20055;-67
2024/04/04 23:01:25;;;;;;;4.10;1.88;;;;;;;;;;10130767;28;20114;-66
2024/04/04 23:06:17;;;;;;;2.83;1.60;;;;;;;;;;10131550;28;20140;-67
2024/04/04 23:11:13;;;;;;;4.13;1.55;;;;;;;;;;10131409;28;20056;-66
2024/04/04 23:16:06;;;;;;;4.13;3.05;;;;;;;;;;10131571;28;20060;-67
2024/04/04 23:20:59;;;;;;;6.18;1.50;;;;;;;;;;10130925;28;20123;-67
2024/04/04 23:25:51;;;;;;;4.75;1.40;;;;;;;;;;10131024;28;20049;-67
2024/04/04 23:30:45;;;;;;;2.95;2.10;;;;;;;;;;10130941;28;20075;-67
2024/04/04 23:35:37;;;;;;;5.93;1.52;;;;;;;;;;10130188;28;20527;-67
2024/04/04 23:40:30;;;;;;;4.22;1.63;;;;;;;;;;10130040;28;20059;-67
2024/04/04 23:45:23;;;;;;;1.67;1.02;;;;;;;;;;10130415;28;20555;-67
2024/04/04 23:50:15;;;;;;;1.98;1.30;;;;;;;;;;10130102;28;20044;-67
2024/04/04 23:55:10;;;;;;;1.42;1.10;;;;;;;;;;10127703;28;20128;-68
